createdAt,value
2022-10-20T00:02:30.554Z,11.40
2022-10-20T00:07:33.970Z,13.18
2022-10-20T00:12:37.776Z,12.35
2022-10-20T00:17:44.708Z,13.43
2022-10-20T00:22:48.173Z,11.93
2022-10-20T00:27:51.498Z,13.35
2022-10-20T00:32:56.148Z,13.20
2022-10-20T00:37:59.442Z,17.00
2022-10-20T00:43:02.758Z,22.75
2022-10-20T00:48:13.500Z,24.75
2022-10-20T00:53:17.710Z,37.47
2022-10-20T00:58:21.412Z,39.78
2022-10-20T01:03:31.470Z,41.33
2022-10-20T01:08:35.034Z,35.33
2022-10-20T01:13:46.371Z,36.47
2022-10-20T01:19:01.971Z,34.30
2022-10-20T01:24:23.794Z,29.00
2022-10-20T01:29:31.472Z,24.70
2022-10-20T01:34:43.247Z,20.70
2022-10-20T01:39:51.960Z,20.25
2022-10-20T01:45:00.413Z,17.15
2022-10-20T01:50:06.992Z,17.42
2022-10-20T01:55:15.011Z,14.93
2022-10-20T02:00:19.802Z,15.57
2022-10-20T02:05:43.892Z,13.20
2022-10-20T02:10:48.890Z,14.25
2022-10-20T02:15:56.611Z,14.68
2022-10-20T02:21:03.832Z,17.10
2022-10-20T02:26:08.784Z,14.23
2022-10-20T02:31:14.162Z,12.13
2022-10-20T02:36:20.004Z,11.90
2022-10-20T02:41:23.761Z,12.70
2022-10-20T02:46:28.408Z,12.82
2022-10-20T02:51:31.677Z,13.70
2022-10-20T02:56:34.966Z,17.58
2022-10-20T03:01:39.654Z,13.80
2022-10-20T03:06:43.124Z,16.05
2022-10-20T03:11:46.437Z,15.55
2022-10-20T03:16:51.086Z,13.52
2022-10-20T03:21:54.405Z,11.10
2022-10-20T03:26:57.691Z,12.10
2022-10-20T03:32:02.321Z,11.82
2022-10-20T03:37:06.302Z,13.05
2022-10-20T03:42:09.622Z,15.10
2022-10-20T03:47:14.632Z,12.90
2022-10-20T03:52:17.913Z,14.18
2022-10-20T03:57:21.705Z,14.48
2022-10-20T04:02:32.934Z,12.65
2022-10-20T04:07:36.424Z,16.58
2022-10-20T04:12:39.749Z,13.20
2022-10-20T04:17:44.421Z,13.70
2022-10-20T04:22:48.089Z,12.73
2022-10-20T04:27:51.467Z,15.95
2022-10-20T04:32:56.085Z,11.27
2022-10-20T04:37:59.631Z,13.90
2022-10-20T04:43:02.944Z,17.92
2022-10-20T04:48:08.455Z,21.67
2022-10-20T04:53:11.707Z,17.50
2022-10-20T04:58:14.986Z,17.45
2022-10-20T05:03:20.040Z,18.65
2022-10-20T05:08:23.330Z,17.55
2022-10-20T05:13:26.585Z,16.75
2022-10-20T05:18:31.812Z,15.73
2022-10-20T05:23:35.173Z,17.20
2022-10-20T05:28:38.688Z,15.90
2022-10-20T05:33:45.526Z,16.35
2022-10-20T05:38:49.152Z,12.73
2022-10-20T05:43:54.172Z,15.65
2022-10-20T05:49:01.233Z,14.10
2022-10-20T05:54:05.522Z,16.77
2022-10-20T05:59:12.291Z,17.98
2022-10-20T06:04:19.063Z,19.67
2022-10-20T06:09:22.884Z,16.65
2022-10-20T06:14:27.081Z,17.25
2022-10-20T06:19:32.058Z,15.00
2022-10-20T06:24:35.562Z,21.75
2022-10-20T06:29:38.813Z,20.48
2022-10-20T06:34:43.694Z,22.80
2022-10-20T06:39:47.404Z,22.40
2022-10-20T06:44:51.275Z,21.55
2022-10-20T06:49:55.909Z,19.77
2022-10-20T06:54:59.176Z,19.13
2022-10-20T07:00:02.971Z,17.25
2022-10-20T07:05:08.877Z,16.77
2022-10-20T07:10:12.172Z,17.98
2022-10-20T07:15:15.884Z,17.63
2022-10-20T07:20:20.454Z,17.80
2022-10-20T07:25:23.969Z,15.38
2022-10-20T07:30:27.367Z,18.70
2022-10-20T07:35:32.685Z,17.27
2022-10-20T07:40:36.053Z,18.48
2022-10-20T07:45:39.402Z,23.02
2022-10-20T07:50:44.335Z,16.33
2022-10-20T07:55:47.931Z,16.77
2022-10-20T08:00:51.165Z,19.27
2022-10-20T08:05:56.191Z,15.77
2022-10-20T08:11:00.712Z,16.10
2022-10-20T08:21:24.567Z,12.10
2022-10-20T08:26:27.984Z,15.52
2022-10-20T08:31:31.576Z,12.30
2022-10-20T08:36:37.507Z,12.82
2022-10-20T08:42:07.663Z,15.77
2022-10-20T08:47:26.660Z,15.05
2022-10-20T08:52:34.369Z,12.98
2022-10-20T08:57:44.269Z,13.65
2022-10-20T09:02:57.701Z,11.18
2022-10-20T09:08:03.912Z,11.88
2022-10-20T09:13:18.507Z,12.05
2022-10-20T09:18:23.788Z,7.85
2022-10-20T09:23:42.473Z,8.90
2022-10-20T09:29:12.143Z,14.27
2022-10-20T09:34:24.818Z,10.88
2022-10-20T09:39:31.754Z,10.10
2022-10-20T09:44:47.833Z,10.70
2022-10-20T09:50:00.922Z,8.23
2022-10-20T09:55:22.341Z,8.32
2022-10-20T10:00:36.748Z,8.70
2022-10-20T10:05:41.163Z,9.55
2022-10-20T10:10:57.941Z,9.65
2022-10-20T10:16:04.074Z,8.00
2022-10-20T10:21:09.744Z,8.57
2022-10-20T10:26:43.829Z,7.82
2022-10-20T10:31:52.186Z,8.73
2022-10-20T10:36:55.756Z,8.20
2022-10-20T10:42:13.495Z,6.38
2022-10-20T10:47:34.226Z,7.72
2022-10-20T10:52:51.789Z,8.13
2022-10-20T10:58:07.345Z,9.40
2022-10-20T11:03:28.389Z,8.88
2022-10-20T11:08:45.610Z,9.02
2022-10-20T11:13:57.724Z,7.18
2022-10-20T11:19:20.408Z,7.20
2022-10-20T11:24:35.227Z,6.57
2022-10-20T11:29:46.611Z,8.05
2022-10-20T11:35:00.028Z,6.20
2022-10-20T11:40:15.042Z,5.88
2022-10-20T11:45:33.431Z,7.28
2022-10-20T11:50:37.481Z,5.97
2022-10-20T11:55:52.894Z,5.53
2022-10-20T12:07:07.574Z,8.18
2022-10-20T12:12:16.127Z,5.75
2022-10-20T12:17:29.048Z,7.20
2022-10-20T12:22:41.088Z,7.65
2022-10-20T12:27:44.385Z,8.82
2022-10-20T12:33:11.764Z,8.05
2022-10-20T12:38:19.342Z,7.80
2022-10-20T12:43:35.045Z,9.05
2022-10-20T12:48:45.799Z,7.38
2022-10-20T12:53:56.226Z,10.40
2022-10-20T12:59:24.352Z,5.82
2022-10-20T13:04:58.009Z,10.30
2022-10-20T13:10:03.535Z,15.45
2022-10-20T13:15:14.022Z,7.57
2022-10-20T13:20:26.690Z,7.68
2022-10-20T13:25:39.944Z,8.95
2022-10-20T13:31:00.441Z,9.90
2022-10-20T13:36:10.050Z,9.68
2022-10-20T13:41:21.108Z,7.18
2022-10-20T13:46:40.551Z,8.80
2022-10-20T13:51:48.643Z,8.13
2022-10-20T13:56:52.849Z,8.13
2022-10-20T14:01:58.350Z,7.35
2022-10-20T14:07:05.841Z,13.18
2022-10-20T14:12:13.880Z,6.40
2022-10-20T14:17:20.807Z,5.88
2022-10-20T14:22:26.437Z,7.82
2022-10-20T14:27:31.831Z,7.20
2022-10-20T14:32:40.260Z,8.35
2022-10-20T14:37:51.779Z,12.10
2022-10-20T14:43:00.518Z,8.18
2022-10-20T14:48:04.009Z,8.88
2022-10-20T14:53:32.933Z,9.60
2022-10-20T14:58:39.908Z,10.10
2022-10-20T15:03:44.696Z,8.57
2022-10-20T15:08:57.871Z,10.98
2022-10-20T15:19:28.224Z,8.95
2022-10-20T15:24:33.566Z,12.82
2022-10-20T15:29:37.194Z,12.07
2022-10-20T15:34:41.027Z,16.23
2022-10-20T15:39:46.312Z,20.52
2022-10-20T15:44:50.071Z,19.42
2022-10-20T15:49:53.710Z,14.32
2022-10-20T15:54:59.329Z,10.38
2022-10-20T16:00:03.105Z,11.25
2022-10-20T16:05:07.331Z,14.20
2022-10-20T16:10:13.896Z,8.10
2022-10-20T16:15:17.912Z,12.15
2022-10-20T16:20:21.446Z,10.95
2022-10-20T16:25:26.326Z,9.65
2022-10-20T16:30:29.899Z,17.13
2022-10-20T16:35:33.441Z,11.98
2022-10-20T16:40:39.110Z,12.45
2022-10-20T16:45:42.757Z,16.60
2022-10-20T16:50:46.336Z,15.90
2022-10-20T16:55:55.748Z,15.68
2022-10-20T17:01:01.334Z,12.73
2022-10-20T17:06:07.094Z,12.80
2022-10-20T17:11:14.712Z,15.77
2022-10-20T17:16:21.500Z,20.20
2022-10-20T17:21:28.075Z,17.92
2022-10-20T17:26:34.114Z,18.25
2022-10-20T17:31:38.155Z,17.50
2022-10-20T17:36:42.037Z,20.70
2022-10-20T17:41:48.135Z,15.55
2022-10-20T17:46:51.775Z,11.98
2022-10-20T17:51:55.305Z,13.43
2022-10-20T17:57:00.253Z,14.55
2022-10-20T18:02:04.008Z,13.40
2022-10-20T18:07:07.588Z,11.95
2022-10-20T18:12:14.399Z,14.15
2022-10-20T18:17:17.975Z,18.35
2022-10-20T18:22:21.658Z,17.92
2022-10-20T18:27:26.823Z,20.20
2022-10-20T18:32:30.936Z,28.92
2022-10-20T18:37:35.130Z,20.60
2022-10-20T18:42:41.340Z,19.65
2022-10-20T18:47:46.134Z,17.58
2022-10-20T18:52:49.996Z,18.27
2022-10-20T18:57:55.090Z,18.92
2022-10-20T19:03:00.904Z,17.45
2022-10-20T19:08:06.600Z,20.02
2022-10-20T19:13:11.531Z,21.08
2022-10-20T19:18:15.498Z,20.08
2022-10-20T19:23:25.757Z,18.60
2022-10-20T19:28:32.115Z,21.20
2022-10-20T19:33:35.758Z,23.95
2022-10-20T19:38:39.309Z,17.77
2022-10-20T19:43:44.408Z,21.88
2022-10-20T19:48:49.083Z,23.00
2022-10-20T19:53:52.659Z,20.65
2022-10-20T19:58:57.895Z,21.20
2022-10-20T20:04:01.779Z,20.95
2022-10-20T20:09:07.898Z,17.02
2022-10-20T20:14:15.945Z,20.88
2022-10-20T20:19:19.543Z,28.85
2022-10-20T20:24:23.376Z,30.40
2022-10-20T20:29:28.520Z,27.38
2022-10-20T20:34:32.289Z,33.50
2022-10-20T20:39:35.867Z,22.83
2022-10-20T20:44:40.873Z,26.45
2022-10-20T20:49:44.532Z,25.08
2022-10-20T20:54:48.386Z,23.20
2022-10-20T21:00:02.273Z,26.48
2022-10-20T21:05:07.250Z,23.70
2022-10-20T21:10:11.155Z,24.25
2022-10-20T21:15:16.689Z,24.55
2022-10-20T21:20:20.554Z,22.80
2022-10-20T21:25:24.410Z,21.48
2022-10-20T21:30:29.345Z,21.25
2022-10-20T21:35:33.211Z,21.77
2022-10-20T21:40:36.750Z,17.73
2022-10-20T21:45:42.038Z,17.30
2022-10-20T21:50:45.953Z,25.25
2022-10-20T21:55:49.565Z,22.30
2022-10-20T22:00:56.130Z,19.17
2022-10-20T22:05:59.948Z,22.10
2022-10-20T22:11:05.433Z,23.35
2022-10-20T22:16:13.344Z,22.25
2022-10-20T22:21:19.111Z,24.80
2022-10-20T22:26:23.702Z,18.95
2022-10-20T22:31:29.322Z,20.40
2022-10-20T22:36:32.971Z,17.92
2022-10-20T22:41:36.924Z,20.55
2022-10-20T22:46:41.862Z,21.00
2022-10-20T22:51:45.413Z,19.75
2022-10-20T22:56:52.015Z,17.23
2022-10-20T23:01:56.764Z,21.15
2022-10-20T23:12:09.027Z,18.20
2022-10-20T23:17:14.330Z,18.42
2022-10-20T23:22:17.740Z,21.25
2022-10-20T23:27:21.137Z,21.92
2022-10-20T23:32:25.866Z,17.35
2022-10-20T23:37:29.170Z,23.20
2022-10-20T23:42:32.714Z,22.15
2022-10-20T23:47:37.662Z,23.30
2022-10-20T23:52:41.263Z,19.88
2022-10-20T23:57:44.538Z,23.25
